createdAt,value
2023-05-22T00:01:06.795Z,6.40
2023-05-22T00:03:34.094Z,6.30
2023-05-22T00:06:01.085Z,6.38
2023-05-22T00:08:29.915Z,6.32
2023-05-22T00:10:57.125Z,6.30
2023-05-22T00:13:24.042Z,6.22
2023-05-22T00:15:51.017Z,6.18
2023-05-22T00:18:18.023Z,6.95
2023-05-22T00:20:46.598Z,6.50
2023-05-22T00:23:15.604Z,6.43
2023-05-22T00:25:42.977Z,6.28
2023-05-22T00:28:11.053Z,6.68
2023-05-22T00:30:38.515Z,6.63
2023-05-22T00:33:05.732Z,6.63
2023-05-22T00:35:33.186Z,6.32
2023-05-22T00:38:03.437Z,6.70
2023-05-22T00:40:30.529Z,6.60
2023-05-22T00:42:57.467Z,6.90
2023-05-22T00:45:24.540Z,6.65
2023-05-22T00:47:51.674Z,6.57
2023-05-22T00:50:20.294Z,6.65
2023-05-22T00:52:47.700Z,6.13
2023-05-22T00:55:15.840Z,6.22
2023-05-22T00:57:43.599Z,6.05
2023-05-22T01:00:11.299Z,6.50
2023-05-22T01:02:39.839Z,6.25
2023-05-22T01:05:07.936Z,6.05
2023-05-22T01:07:37.821Z,7.05
2023-05-22T01:10:06.311Z,6.72
2023-05-22T01:12:56.383Z,6.25
2023-05-22T01:15:42.192Z,6.40
2023-05-22T01:18:19.875Z,6.32
2023-05-22T01:20:58.264Z,6.30
2023-05-22T01:23:54.247Z,6.60
2023-05-22T01:26:36.619Z,6.80
2023-05-22T01:29:23.105Z,6.75
2023-05-22T01:31:52.530Z,6.35
2023-05-22T01:34:21.229Z,5.82
2023-05-22T01:36:51.221Z,6.03
2023-05-22T01:39:18.965Z,5.57
2023-05-22T01:41:46.327Z,5.90
2023-05-22T01:44:13.288Z,6.32
2023-05-22T01:46:41.101Z,5.70
2023-05-22T01:49:09.202Z,5.90
2023-05-22T01:52:12.372Z,6.10
2023-05-22T01:57:22.316Z,6.07
2023-05-22T01:59:57.969Z,5.80
2023-05-22T02:02:26.391Z,6.15
2023-05-22T02:04:58.786Z,6.25
2023-05-22T02:07:27.638Z,6.07
2023-05-22T02:09:57.068Z,6.35
2023-05-22T02:12:24.841Z,6.20
2023-05-22T02:14:52.656Z,6.07
2023-05-22T02:17:22.180Z,6.20
2023-05-22T02:19:49.593Z,6.60
2023-05-22T02:22:16.633Z,6.90
2023-05-22T02:24:47.347Z,6.80
2023-05-22T02:27:16.938Z,6.38
2023-05-22T02:29:43.905Z,6.82
2023-05-22T02:32:11.282Z,6.50
2023-05-22T02:34:38.256Z,6.70
2023-05-22T02:37:06.115Z,6.93
2023-05-22T02:39:33.133Z,6.78
2023-05-22T02:42:00.835Z,6.70
2023-05-22T02:44:28.367Z,6.72
2023-05-22T02:46:55.549Z,6.28
2023-05-22T02:49:22.620Z,6.70
2023-05-22T02:51:49.594Z,6.72
2023-05-22T02:54:16.947Z,6.28
2023-05-22T02:56:44.258Z,6.70
2023-05-22T02:59:11.336Z,6.57
2023-05-22T03:01:39.004Z,7.15
2023-05-22T03:04:06.825Z,6.07
2023-05-22T03:06:35.270Z,6.80
2023-05-22T03:09:04.163Z,6.60
2023-05-22T03:11:32.515Z,6.70
2023-05-22T03:13:59.443Z,6.97
2023-05-22T03:16:27.087Z,7.00
2023-05-22T03:19:14.683Z,7.53
2023-05-22T03:21:44.035Z,6.50
2023-05-22T03:24:12.610Z,6.60
2023-05-22T03:26:39.779Z,7.82
2023-05-22T03:29:10.066Z,7.28
2023-05-22T03:31:40.471Z,7.60
2023-05-22T03:34:11.133Z,7.63
2023-05-22T03:36:38.867Z,7.00
2023-05-22T03:39:06.431Z,7.28
2023-05-22T03:41:38.615Z,6.78
2023-05-22T03:44:06.276Z,6.72
2023-05-22T03:46:34.235Z,7.18
2023-05-22T03:49:01.283Z,7.15
2023-05-22T03:51:31.798Z,7.32
2023-05-22T03:53:59.124Z,6.50
2023-05-22T03:56:26.874Z,7.13
2023-05-22T03:58:54.169Z,6.63
2023-05-22T04:01:22.326Z,6.53
2023-05-22T04:03:49.380Z,6.53
2023-05-22T04:06:22.310Z,7.20
2023-05-22T04:08:49.476Z,8.05
2023-05-22T04:11:19.789Z,6.60
2023-05-22T04:13:51.605Z,7.82
2023-05-22T04:16:20.322Z,7.70
2023-05-22T04:18:48.850Z,7.88
2023-05-22T04:21:18.011Z,8.02
2023-05-22T04:23:46.684Z,7.47
2023-05-22T04:26:13.905Z,8.95
2023-05-22T04:28:41.781Z,8.52
2023-05-22T04:31:08.804Z,8.57
2023-05-22T04:33:36.517Z,8.23
2023-05-22T04:36:04.974Z,8.18
2023-05-22T04:38:36.776Z,7.70
2023-05-22T04:41:04.046Z,8.87
2023-05-22T04:43:32.414Z,7.55
2023-05-22T04:45:59.418Z,8.10
2023-05-22T04:48:26.570Z,7.38
2023-05-22T04:50:54.316Z,7.72
2023-05-22T04:53:21.507Z,6.95
2023-05-22T04:55:49.243Z,7.13
2023-05-22T04:58:16.305Z,7.57
2023-05-22T05:00:43.539Z,7.32
2023-05-22T05:03:11.943Z,7.30
2023-05-22T05:05:39.415Z,7.97
2023-05-22T05:08:06.565Z,8.10
2023-05-22T05:10:33.521Z,7.47
2023-05-22T05:13:00.579Z,8.18
2023-05-22T05:15:29.412Z,7.35
2023-05-22T05:17:56.432Z,8.07
2023-05-22T05:20:24.429Z,8.10
2023-05-22T05:22:51.505Z,7.82
2023-05-22T05:25:18.739Z,8.25
2023-05-22T05:27:45.760Z,7.85
2023-05-22T05:30:13.596Z,7.65
2023-05-22T05:33:13.127Z,7.68
2023-05-22T05:35:58.566Z,7.25
2023-05-22T05:38:26.281Z,7.90
2023-05-22T05:40:55.155Z,7.38
2023-05-22T05:43:23.484Z,7.68
2023-05-22T05:45:51.920Z,9.23
2023-05-22T05:48:18.891Z,8.63
2023-05-22T05:50:49.560Z,9.07
2023-05-22T05:53:16.829Z,8.95
2023-05-22T05:58:17.799Z,7.90
2023-05-22T06:01:06.176Z,7.85
2023-05-22T06:03:33.998Z,7.55
2023-05-22T06:06:13.155Z,8.30
2023-05-22T06:09:10.133Z,8.57
2023-05-22T06:11:57.553Z,8.70
2023-05-22T06:14:25.116Z,8.35
2023-05-22T06:16:54.627Z,8.40
2023-05-22T06:19:25.475Z,8.80
2023-05-22T06:21:52.586Z,8.13
2023-05-22T06:24:21.185Z,7.22
2023-05-22T06:26:48.165Z,7.38
2023-05-22T06:29:15.221Z,7.03
2023-05-22T06:31:42.223Z,5.90
2023-05-22T06:34:09.745Z,6.40
2023-05-22T06:36:37.550Z,6.35
2023-05-22T06:39:06.003Z,5.78
2023-05-22T06:41:51.365Z,6.57
2023-05-22T06:44:18.787Z,7.40
2023-05-22T06:46:48.389Z,6.68
2023-05-22T06:49:22.388Z,6.57
2023-05-22T06:51:52.564Z,6.55
2023-05-22T06:54:21.342Z,6.75
2023-05-22T06:56:51.492Z,6.10
2023-05-22T06:59:18.728Z,6.22
2023-05-22T07:02:04.423Z,6.32
2023-05-22T07:04:42.729Z,5.75
2023-05-22T07:07:13.885Z,6.55
2023-05-22T07:09:40.882Z,6.13
2023-05-22T07:12:08.623Z,6.35
2023-05-22T07:14:35.930Z,6.40
2023-05-22T07:17:03.687Z,6.30
2023-05-22T07:19:36.190Z,6.35
2023-05-22T07:22:04.827Z,6.10
2023-05-22T07:24:34.172Z,6.20
2023-05-22T07:27:02.026Z,6.20
2023-05-22T07:29:29.093Z,6.45
2023-05-22T07:31:57.717Z,6.28
2023-05-22T07:34:31.995Z,6.20
2023-05-22T07:37:09.265Z,5.97
2023-05-22T07:39:36.411Z,5.63
2023-05-22T07:42:05.915Z,5.55
2023-05-22T07:44:37.771Z,6.20
2023-05-22T07:47:05.689Z,6.00
2023-05-22T07:49:34.119Z,5.70
2023-05-22T07:52:04.712Z,5.65
2023-05-22T07:54:32.004Z,5.70
2023-05-22T07:57:03.235Z,6.22
2023-05-22T07:59:35.854Z,5.60
2023-05-22T08:02:02.909Z,6.05
2023-05-22T08:04:30.228Z,5.50
2023-05-22T08:06:57.284Z,6.07
2023-05-22T08:09:24.369Z,5.57
2023-05-22T08:11:51.395Z,5.80
2023-05-22T08:14:19.538Z,5.80
2023-05-22T08:16:46.570Z,6.10
2023-05-22T08:19:14.840Z,6.30
2023-05-22T08:21:42.081Z,6.55
2023-05-22T08:24:09.348Z,6.32
2023-05-22T08:26:40.134Z,5.32
2023-05-22T08:29:22.228Z,5.80
2023-05-22T08:32:00.629Z,5.18
2023-05-22T08:34:32.570Z,5.47
2023-05-22T08:37:02.131Z,5.55
2023-05-22T08:39:31.929Z,5.60
2023-05-22T08:41:59.429Z,5.30
2023-05-22T08:44:26.405Z,6.00
2023-05-22T08:46:56.693Z,5.75
2023-05-22T08:49:24.629Z,5.50
2023-05-22T08:51:58.221Z,5.30
2023-05-22T08:54:28.511Z,5.88
2023-05-22T08:56:57.530Z,6.35
2023-05-22T08:59:24.932Z,5.68
2023-05-22T09:01:53.556Z,6.05
2023-05-22T09:04:23.928Z,6.55
2023-05-22T09:06:53.141Z,6.10
2023-05-22T09:09:20.099Z,6.50
2023-05-22T09:11:47.075Z,6.55
2023-05-22T09:14:16.001Z,6.00
2023-05-22T09:16:48.126Z,6.55
2023-05-22T09:21:44.632Z,6.30
2023-05-22T09:24:11.859Z,5.90
2023-05-22T09:26:39.848Z,6.22
2023-05-22T09:29:10.017Z,6.80
2023-05-22T09:31:44.433Z,6.35
2023-05-22T09:34:17.737Z,6.35
2023-05-22T09:36:45.036Z,5.80
2023-05-22T09:39:12.165Z,6.25
2023-05-22T09:41:40.060Z,6.32
2023-05-22T09:44:16.612Z,6.03
2023-05-22T09:46:48.051Z,6.35
2023-05-22T09:49:17.456Z,6.32
2023-05-22T09:51:48.403Z,6.68
2023-05-22T09:54:17.757Z,6.20
2023-05-22T09:56:49.290Z,6.53
2023-05-22T09:59:22.485Z,6.97
2023-05-22T10:01:50.488Z,6.38
2023-05-22T10:04:21.998Z,6.28
2023-05-22T10:06:54.393Z,6.25
2023-05-22T10:09:30.925Z,6.55
2023-05-22T10:12:00.388Z,6.60
2023-05-22T10:14:28.820Z,6.28
2023-05-22T10:17:02.041Z,6.07
2023-05-22T10:19:31.250Z,6.40
2023-05-22T10:22:00.481Z,6.05
2023-05-22T10:24:28.822Z,7.32
2023-05-22T10:26:56.064Z,6.88
2023-05-22T10:29:50.824Z,7.40
2023-05-22T10:32:35.840Z,6.63
2023-05-22T10:35:14.300Z,6.40
2023-05-22T10:37:53.644Z,6.25
2023-05-22T10:40:33.391Z,6.93
2023-05-22T10:43:01.884Z,6.03
2023-05-22T10:45:29.959Z,6.78
2023-05-22T10:48:07.899Z,6.72
2023-05-22T10:50:36.284Z,6.60
2023-05-22T10:53:23.467Z,6.40
2023-05-22T10:55:55.315Z,6.95
2023-05-22T10:58:37.298Z,6.78
2023-05-22T11:01:18.313Z,6.80
2023-05-22T11:04:07.163Z,6.72
2023-05-22T11:06:54.583Z,6.55
2023-05-22T11:09:28.631Z,6.35
2023-05-22T11:12:24.684Z,6.90
2023-05-22T11:15:08.125Z,6.47
2023-05-22T11:17:51.482Z,6.45
2023-05-22T11:20:21.117Z,7.20
2023-05-22T11:25:38.531Z,6.80
2023-05-22T11:28:06.393Z,6.97
2023-05-22T11:30:34.870Z,7.10
2023-05-22T11:33:02.499Z,7.00
2023-05-22T11:35:29.963Z,7.75
2023-05-22T11:37:57.211Z,7.97
2023-05-22T11:40:27.144Z,7.70
2023-05-22T11:42:54.457Z,7.97
2023-05-22T11:45:22.148Z,7.50
2023-05-22T11:47:49.963Z,7.75
2023-05-22T11:50:29.352Z,7.85
2023-05-22T11:53:04.497Z,8.25
2023-05-22T11:55:33.809Z,7.78
2023-05-22T11:58:02.741Z,6.65
2023-05-22T12:00:31.988Z,7.38
2023-05-22T12:02:59.483Z,7.30
2023-05-22T12:05:26.767Z,6.78
2023-05-22T12:07:54.146Z,7.30
2023-05-22T12:10:21.242Z,6.95
2023-05-22T12:12:48.357Z,7.55
2023-05-22T12:15:22.893Z,7.30
2023-05-22T12:17:49.961Z,7.35
2023-05-22T12:20:16.976Z,7.72
2023-05-22T12:22:44.618Z,7.40
2023-05-22T12:25:18.438Z,7.18
2023-05-22T12:27:46.093Z,8.05
2023-05-22T12:30:14.490Z,7.70
2023-05-22T12:32:46.984Z,7.72
2023-05-22T12:35:17.880Z,8.07
2023-05-22T12:37:49.595Z,7.85
2023-05-22T12:40:16.810Z,7.80
2023-05-22T12:42:45.120Z,7.75
2023-05-22T12:45:13.320Z,8.52
2023-05-22T12:47:40.484Z,7.38
2023-05-22T12:50:08.255Z,7.93
2023-05-22T12:52:36.044Z,7.45
2023-05-22T12:55:03.236Z,7.97
2023-05-22T12:57:30.475Z,7.30
2023-05-22T12:59:57.637Z,7.90
2023-05-22T13:02:24.976Z,7.88
2023-05-22T13:04:52.085Z,7.57
2023-05-22T13:07:19.076Z,7.05
2023-05-22T13:09:46.045Z,7.38
2023-05-22T13:12:13.168Z,7.13
2023-05-22T13:14:40.530Z,6.97
2023-05-22T13:17:08.058Z,6.63
2023-05-22T13:19:35.307Z,6.95
2023-05-22T13:22:02.464Z,6.50
2023-05-22T13:24:30.446Z,6.80
2023-05-22T13:26:57.556Z,6.00
2023-05-22T13:29:24.578Z,5.50
2023-05-22T13:31:51.537Z,5.75
2023-05-22T13:34:18.800Z,5.97
2023-05-22T13:36:46.590Z,5.45
2023-05-22T13:39:13.565Z,4.85
2023-05-22T13:41:40.744Z,4.57
2023-05-22T13:44:07.744Z,5.50
2023-05-22T13:46:34.727Z,5.20
2023-05-22T13:49:01.741Z,5.15
2023-05-22T13:51:28.785Z,5.28
2023-05-22T13:53:55.764Z,4.78
2023-05-22T13:56:23.333Z,5.05
2023-05-22T13:58:50.288Z,4.40
2023-05-22T14:01:17.332Z,5.35
2023-05-22T14:03:44.775Z,5.03
2023-05-22T14:06:11.896Z,5.63
2023-05-22T14:08:38.855Z,5.43
2023-05-22T14:11:05.866Z,6.03
2023-05-22T14:13:32.880Z,5.40
2023-05-22T14:15:59.801Z,5.60
2023-05-22T14:18:26.712Z,5.40
2023-05-22T14:20:53.808Z,5.38
2023-05-22T14:23:21.095Z,5.78
2023-05-22T14:25:48.447Z,5.75
2023-05-22T14:28:16.412Z,5.40
2023-05-22T14:30:43.550Z,5.03
2023-05-22T14:33:11.351Z,5.22
2023-05-22T14:35:38.666Z,5.72
2023-05-22T14:38:06.207Z,5.30
2023-05-22T14:40:33.204Z,5.40
2023-05-22T14:43:00.248Z,5.35
2023-05-22T14:45:27.213Z,5.43
2023-05-22T14:47:55.101Z,5.50
2023-05-22T14:50:22.338Z,5.25
2023-05-22T14:52:49.935Z,5.93
2023-05-22T14:55:17.953Z,5.10
2023-05-22T14:57:45.296Z,5.93
2023-05-22T15:00:12.962Z,5.55
2023-05-22T15:02:40.472Z,5.88
2023-05-22T15:05:08.637Z,6.05
2023-05-22T15:07:44.019Z,5.88
2023-05-22T15:10:13.301Z,5.90
2023-05-22T15:12:40.650Z,6.05
2023-05-22T15:15:08.418Z,6.20
2023-05-22T15:17:35.624Z,6.25
2023-05-22T15:20:02.908Z,5.97
2023-05-22T15:22:29.840Z,6.72
2023-05-22T15:25:07.661Z,6.03
2023-05-22T15:27:35.626Z,5.82
2023-05-22T15:30:04.226Z,6.13
2023-05-22T15:32:36.321Z,5.90
2023-05-22T15:35:03.402Z,5.55
2023-05-22T15:37:32.515Z,5.78
2023-05-22T15:40:01.959Z,6.20
2023-05-22T15:42:29.178Z,5.72
2023-05-22T15:44:59.462Z,6.22
2023-05-22T15:47:26.726Z,6.00
2023-05-22T15:49:53.714Z,5.38
2023-05-22T15:52:23.377Z,5.93
2023-05-22T15:54:50.577Z,6.15
2023-05-22T15:57:17.709Z,5.68
2023-05-22T15:59:47.286Z,5.80
2023-05-22T16:02:14.507Z,6.07
2023-05-22T16:04:41.647Z,5.85
2023-05-22T16:07:08.716Z,5.88
2023-05-22T16:09:36.222Z,6.10
2023-05-22T16:12:03.964Z,5.80
2023-05-22T16:14:31.947Z,6.15
2023-05-22T16:16:59.150Z,5.95
2023-05-22T16:19:28.423Z,5.72
2023-05-22T16:21:58.996Z,6.03
2023-05-22T16:24:52.727Z,5.65
2023-05-22T16:27:35.230Z,5.90
2023-05-22T16:30:15.129Z,5.20
2023-05-22T16:32:52.715Z,4.95
2023-05-22T16:35:30.379Z,4.95
2023-05-22T16:38:06.258Z,4.65
2023-05-22T16:40:43.060Z,5.00
2023-05-22T16:43:17.835Z,4.90
2023-05-22T16:45:56.644Z,5.07
2023-05-22T16:48:29.440Z,5.03
2023-05-22T16:50:59.527Z,5.18
2023-05-22T16:53:26.429Z,5.50
2023-05-22T16:55:53.403Z,5.15
2023-05-22T16:58:21.790Z,5.30
2023-05-22T17:00:49.052Z,5.57
2023-05-22T17:03:16.483Z,5.45
2023-05-22T17:06:20.852Z,5.90
2023-05-22T17:09:13.638Z,6.22
2023-05-22T17:12:09.801Z,6.20
2023-05-22T17:14:41.423Z,6.38
2023-05-22T17:17:29.200Z,6.70
2023-05-22T17:20:03.970Z,6.38
2023-05-22T17:22:44.134Z,6.63
2023-05-22T17:25:31.635Z,6.45
2023-05-22T17:28:17.159Z,6.40
2023-05-22T17:30:46.260Z,7.00
2023-05-22T17:33:13.961Z,6.88
2023-05-22T17:35:41.174Z,6.93
2023-05-22T17:38:08.599Z,7.13
2023-05-22T17:40:44.857Z,6.65
2023-05-22T17:43:13.264Z,6.75
2023-05-22T17:45:42.022Z,7.90
2023-05-22T17:48:09.313Z,7.30
2023-05-22T17:50:38.502Z,7.40
2023-05-22T17:53:05.577Z,7.88
2023-05-22T17:55:32.741Z,7.78
2023-05-22T17:57:59.933Z,7.80
2023-05-22T18:00:26.830Z,8.10
2023-05-22T18:02:53.846Z,8.52
2023-05-22T18:05:21.249Z,8.40
2023-05-22T18:07:48.509Z,8.45
2023-05-22T18:10:15.588Z,8.70
2023-05-22T18:12:42.626Z,8.88
2023-05-22T18:15:12.024Z,8.70
2023-05-22T18:17:39.207Z,8.88
2023-05-22T18:20:08.139Z,8.82
2023-05-22T18:22:37.380Z,8.93
2023-05-22T18:25:05.562Z,9.00
2023-05-22T18:27:33.457Z,9.13
2023-05-22T18:30:00.659Z,9.23
2023-05-22T18:32:27.830Z,9.80
2023-05-22T18:34:58.701Z,9.95
2023-05-22T18:37:26.624Z,9.73
2023-05-22T18:39:53.608Z,10.85
2023-05-22T18:42:20.682Z,10.27
2023-05-22T18:44:48.970Z,9.63
2023-05-22T18:47:16.507Z,10.15
2023-05-22T18:49:43.641Z,8.77
2023-05-22T18:52:10.598Z,9.15
2023-05-22T18:54:37.572Z,9.00
2023-05-22T18:57:04.799Z,9.35
2023-05-22T18:59:31.753Z,9.27
2023-05-22T19:01:58.706Z,8.90
2023-05-22T19:04:25.888Z,8.80
2023-05-22T19:06:53.873Z,9.23
2023-05-22T19:09:20.850Z,8.82
2023-05-22T19:11:48.055Z,8.88
2023-05-22T19:14:15.019Z,8.55
2023-05-22T19:16:43.877Z,9.40
2023-05-22T19:19:11.719Z,8.73
2023-05-22T19:21:39.410Z,8.85
2023-05-22T19:24:07.139Z,9.38
2023-05-22T19:26:34.167Z,9.55
2023-05-22T19:29:01.125Z,9.27
2023-05-22T19:31:31.411Z,9.32
2023-05-22T19:33:58.655Z,8.98
2023-05-22T19:36:25.757Z,9.00
2023-05-22T19:38:53.627Z,9.02
2023-05-22T19:41:21.741Z,9.38
2023-05-22T19:43:48.954Z,8.65
2023-05-22T19:46:15.896Z,8.65
2023-05-22T19:48:42.939Z,8.25
2023-05-22T19:51:09.975Z,9.20
2023-05-22T19:53:36.924Z,8.68
2023-05-22T19:56:04.048Z,8.90
2023-05-22T19:58:31.064Z,8.73
2023-05-22T20:00:58.104Z,8.90
2023-05-22T20:03:26.412Z,8.32
2023-05-22T20:05:53.901Z,8.65
2023-05-22T20:08:25.695Z,9.05
2023-05-22T20:10:52.982Z,9.10
2023-05-22T20:13:20.234Z,9.50
2023-05-22T20:15:47.828Z,9.25
2023-05-22T20:18:15.090Z,8.82
2023-05-22T20:20:42.090Z,9.70
2023-05-22T20:23:09.140Z,9.43
2023-05-22T20:25:36.285Z,8.88
2023-05-22T20:28:04.739Z,9.52
2023-05-22T20:30:31.813Z,9.85
2023-05-22T20:32:58.992Z,8.98
2023-05-22T20:35:26.463Z,10.15
2023-05-22T20:37:53.457Z,9.77
2023-05-22T20:40:20.550Z,9.68
2023-05-22T20:42:47.680Z,9.90
2023-05-22T20:45:15.589Z,10.00
2023-05-22T20:47:43.490Z,11.27
2023-05-22T20:50:11.373Z,10.20
2023-05-22T20:52:38.351Z,10.55
2023-05-22T20:55:06.734Z,10.27
2023-05-22T20:57:34.530Z,10.70
2023-05-22T21:00:01.622Z,10.23
2023-05-22T21:02:28.612Z,10.30
2023-05-22T21:04:55.676Z,10.25
2023-05-22T21:07:22.650Z,9.70
2023-05-22T21:09:49.601Z,10.18
2023-05-22T21:12:16.671Z,9.77
2023-05-22T21:14:44.170Z,10.07
2023-05-22T21:17:11.228Z,10.00
2023-05-22T21:19:38.350Z,10.77
2023-05-22T21:22:05.461Z,10.25
2023-05-22T21:24:35.024Z,10.57
2023-05-22T21:27:01.988Z,10.77
2023-05-22T21:29:28.906Z,11.05
2023-05-22T21:31:56.152Z,11.32
2023-05-22T21:34:23.199Z,10.15
2023-05-22T21:36:50.857Z,11.20
2023-05-22T21:39:17.763Z,9.98
2023-05-22T21:41:44.743Z,11.00
2023-05-22T21:44:11.691Z,10.27
2023-05-22T21:46:38.685Z,10.60
2023-05-22T21:49:06.250Z,10.27
2023-05-22T21:51:33.726Z,9.90
2023-05-22T21:54:00.830Z,11.15
2023-05-22T21:56:27.774Z,10.23
2023-05-22T21:58:54.702Z,10.75
2023-05-22T22:01:21.882Z,10.07
2023-05-22T22:03:49.016Z,9.88
2023-05-22T22:06:16.056Z,10.55
2023-05-22T22:08:43.255Z,10.75
2023-05-22T22:11:10.145Z,10.20
2023-05-22T22:13:37.345Z,10.57
2023-05-22T22:16:04.507Z,11.05
2023-05-22T22:18:33.375Z,11.00
2023-05-22T22:21:02.365Z,10.38
2023-05-22T22:23:29.748Z,11.18
2023-05-22T22:25:56.704Z,10.75
2023-05-22T22:28:23.824Z,10.65
2023-05-22T22:30:50.846Z,11.20
2023-05-22T22:33:20.973Z,10.70
2023-05-22T22:35:48.746Z,10.68
2023-05-22T22:38:16.010Z,10.80
2023-05-22T22:40:43.246Z,11.48
2023-05-22T22:43:10.581Z,11.60
2023-05-22T22:45:39.893Z,11.18
2023-05-22T22:48:07.694Z,11.27
2023-05-22T22:50:34.842Z,11.00
2023-05-22T22:53:05.715Z,11.00
2023-05-22T22:55:32.745Z,11.07
2023-05-22T22:57:59.821Z,11.57
2023-05-22T23:00:26.874Z,9.82
2023-05-22T23:02:53.894Z,11.77
2023-05-22T23:05:21.110Z,11.05
2023-05-22T23:07:48.463Z,11.30
2023-05-22T23:10:18.634Z,11.57
2023-05-22T23:12:50.645Z,11.57
2023-05-22T23:15:17.732Z,10.82
2023-05-22T23:17:44.951Z,12.23
2023-05-22T23:20:12.083Z,11.73
2023-05-22T23:22:39.055Z,11.60
2023-05-22T23:25:06.738Z,11.45
2023-05-22T23:27:33.885Z,11.57
2023-05-22T23:30:01.142Z,11.85
2023-05-22T23:32:28.758Z,11.02
2023-05-22T23:34:56.144Z,12.10
2023-05-22T23:37:23.204Z,11.82
2023-05-22T23:39:50.448Z,11.55
2023-05-22T23:42:17.406Z,10.90
2023-05-22T23:44:44.303Z,11.85
2023-05-22T23:47:12.521Z,11.00
2023-05-22T23:49:39.527Z,11.77
2023-05-22T23:52:08.042Z,12.40
2023-05-22T23:54:35.573Z,11.77
2023-05-22T23:57:02.548Z,11.20
2023-05-22T23:59:29.478Z,10.85
